createdAt,value
2023-04-28T00:00:26.906Z,7.50
2023-04-28T00:01:26.917Z,7.55
2023-04-28T00:02:26.930Z,7.64
2023-04-28T00:03:27.009Z,7.61
2023-04-28T00:04:27.151Z,7.64
2023-04-28T00:05:26.892Z,7.57
2023-04-28T00:06:26.860Z,7.46
2023-04-28T00:07:26.851Z,7.63
2023-04-28T00:08:26.824Z,7.69
2023-04-28T00:09:26.813Z,7.72
2023-04-28T00:10:26.809Z,7.71
2023-04-28T00:11:26.801Z,7.71
2023-04-28T00:12:26.771Z,7.67
2023-04-28T00:13:26.819Z,7.69
2023-04-28T00:14:26.746Z,7.68
2023-04-28T00:15:26.747Z,7.74
2023-04-28T00:16:26.824Z,7.64
2023-04-28T00:17:26.776Z,7.68
2023-04-28T00:18:26.755Z,7.64
2023-04-28T00:19:26.726Z,7.64
2023-04-28T00:20:26.693Z,7.61
2023-04-28T00:21:26.666Z,7.67
2023-04-28T00:22:26.707Z,7.69
2023-04-28T00:23:26.652Z,7.61
2023-04-28T00:24:26.645Z,7.68
2023-04-28T00:25:26.642Z,7.67
2023-04-28T00:26:26.643Z,7.67
2023-04-28T00:27:26.631Z,7.69
2023-04-28T00:28:34.211Z,7.69
2023-04-28T00:29:27.593Z,7.85
2023-04-28T00:30:26.582Z,7.86
2023-04-28T00:31:26.585Z,7.87
2023-04-28T00:32:26.633Z,7.89
2023-04-28T00:33:26.548Z,7.83
2023-04-28T00:34:26.547Z,7.87
2023-04-28T00:35:26.520Z,7.85
2023-04-28T00:36:26.505Z,7.98
2023-04-28T00:37:26.509Z,7.93
2023-04-28T00:38:26.483Z,7.92
2023-04-28T00:39:26.468Z,7.95
2023-04-28T00:40:26.462Z,7.93
2023-04-28T00:41:26.453Z,7.93
2023-04-28T00:42:26.483Z,7.93
2023-04-28T00:43:26.423Z,7.93
2023-04-28T00:44:26.422Z,7.85
2023-04-28T00:45:26.443Z,7.85
2023-04-28T00:46:26.400Z,7.85
2023-04-28T00:47:26.406Z,7.86
2023-04-28T00:48:26.374Z,7.83
2023-04-28T00:49:26.363Z,7.89
2023-04-28T00:50:26.355Z,7.95
2023-04-28T00:51:26.334Z,7.90
2023-04-28T00:52:26.345Z,7.97
2023-04-28T00:53:26.325Z,7.97
2023-04-28T00:54:26.302Z,7.98
2023-04-28T00:55:26.301Z,7.93
2023-04-28T00:56:26.281Z,8.01
2023-04-28T00:57:26.286Z,8.04
2023-04-28T00:58:26.278Z,7.97
2023-04-28T00:59:26.246Z,7.93
2023-04-28T01:00:26.238Z,7.95
2023-04-28T01:01:26.257Z,7.97
2023-04-28T01:02:26.317Z,8.01
2023-04-28T01:03:26.296Z,7.90
2023-04-28T01:04:26.339Z,8.00
2023-04-28T01:05:26.189Z,8.01
2023-04-28T01:06:26.179Z,8.08
2023-04-28T01:07:26.177Z,8.01
2023-04-28T01:08:26.148Z,7.98
2023-04-28T01:09:26.136Z,8.01
2023-04-28T01:10:26.125Z,7.95
2023-04-28T01:11:26.111Z,7.93
2023-04-28T01:12:26.115Z,7.97
2023-04-28T01:13:26.101Z,8.10
2023-04-28T01:14:26.105Z,8.12
2023-04-28T01:15:26.073Z,8.15
2023-04-28T01:16:26.108Z,8.04
2023-04-28T01:17:26.096Z,8.08
2023-04-28T01:18:26.033Z,8.05
2023-04-28T01:19:26.032Z,7.93
2023-04-28T01:20:26.016Z,7.97
2023-04-28T01:21:26.000Z,7.92
2023-04-28T01:22:26.022Z,7.85
2023-04-28T01:23:25.977Z,7.82
2023-04-28T01:24:25.971Z,7.79
2023-04-28T01:25:25.964Z,7.79
2023-04-28T01:26:25.949Z,7.67
2023-04-28T01:27:25.963Z,7.71
2023-04-28T01:28:25.938Z,7.64
2023-04-28T01:29:25.924Z,7.49
2023-04-28T01:30:25.916Z,7.63
2023-04-28T01:31:25.977Z,7.60
2023-04-28T01:32:25.902Z,7.52
2023-04-28T01:33:25.870Z,7.60
2023-04-28T01:34:25.853Z,7.58
2023-04-28T01:36:38.068Z,7.48
2023-04-28T01:37:38.068Z,7.45
2023-04-28T01:38:38.049Z,7.50
2023-04-28T01:39:38.032Z,7.48
2023-04-28T01:40:38.018Z,7.49
2023-04-28T01:41:38.016Z,7.52
2023-04-28T01:42:38.022Z,7.49
2023-04-28T01:43:37.989Z,7.55
2023-04-28T01:44:37.983Z,7.45
2023-04-28T01:45:38.002Z,7.46
2023-04-28T01:46:38.070Z,7.49
2023-04-28T01:47:37.995Z,7.45
2023-04-28T01:48:37.936Z,7.46
2023-04-28T01:49:37.921Z,7.45
2023-04-28T01:50:37.917Z,7.50
2023-04-28T01:51:37.925Z,7.49
2023-04-28T01:52:37.902Z,7.46
2023-04-28T01:53:37.870Z,7.48
2023-04-28T01:54:37.885Z,7.50
2023-04-28T01:55:37.863Z,7.61
2023-04-28T01:56:37.845Z,7.58
2023-04-28T01:57:37.860Z,7.61
2023-04-28T01:58:37.850Z,7.61
2023-04-28T01:59:37.825Z,7.57
2023-04-28T02:00:37.808Z,7.61
2023-04-28T02:01:37.890Z,7.68
2023-04-28T02:02:37.855Z,7.64
2023-04-28T02:03:37.884Z,7.67
2023-04-28T02:04:37.798Z,7.64
2023-04-28T02:05:37.763Z,7.58
2023-04-28T02:06:37.736Z,7.68
2023-04-28T02:07:37.749Z,7.64
2023-04-28T02:08:37.710Z,7.68
2023-04-28T02:09:37.710Z,7.71
2023-04-28T02:10:37.708Z,7.68
2023-04-28T02:11:37.679Z,7.67
2023-04-28T02:12:37.680Z,7.71
2023-04-28T02:13:37.647Z,7.63
2023-04-28T02:14:37.691Z,7.67
2023-04-28T02:15:37.650Z,7.71
2023-04-28T02:16:37.629Z,7.60
2023-04-28T02:17:37.659Z,7.64
2023-04-28T02:18:37.589Z,7.63
2023-04-28T02:19:37.579Z,7.69
2023-04-28T02:20:37.573Z,7.71
2023-04-28T02:21:37.560Z,7.67
2023-04-28T02:22:37.566Z,7.77
2023-04-28T02:23:37.571Z,7.79
2023-04-28T02:24:37.524Z,7.74
2023-04-28T02:25:37.507Z,7.75
2023-04-28T02:26:37.507Z,7.80
2023-04-28T02:27:37.490Z,7.82
2023-04-28T02:28:37.494Z,7.86
2023-04-28T02:29:37.471Z,7.89
2023-04-28T02:30:37.466Z,7.98
2023-04-28T02:31:37.463Z,7.89
2023-04-28T02:32:37.489Z,7.92
2023-04-28T02:33:37.467Z,7.97
2023-04-28T02:34:37.412Z,7.92
2023-04-28T02:35:37.400Z,7.89
2023-04-28T02:36:37.402Z,7.85
2023-04-28T02:37:37.379Z,7.85
2023-04-28T02:38:37.379Z,7.92
2023-04-28T02:39:37.360Z,7.83
2023-04-28T02:40:37.347Z,7.92
2023-04-28T02:41:37.329Z,7.89
2023-04-28T02:42:37.327Z,7.85
2023-04-28T02:43:37.606Z,7.89
2023-04-28T02:44:37.300Z,7.92
2023-04-28T02:45:37.292Z,7.80
2023-04-28T02:46:37.314Z,7.79
2023-04-28T02:47:37.282Z,7.82
2023-04-28T02:48:37.323Z,7.77
2023-04-28T02:49:37.257Z,7.72
2023-04-28T02:50:37.235Z,7.69
2023-04-28T02:51:37.218Z,7.72
2023-04-28T02:52:37.220Z,7.85
2023-04-28T02:53:37.212Z,7.90
2023-04-28T02:54:37.207Z,7.92
2023-04-28T02:55:37.171Z,7.86
2023-04-28T02:56:37.171Z,7.89
2023-04-28T02:57:37.162Z,7.93
2023-04-28T02:58:37.158Z,7.89
2023-04-28T02:59:37.147Z,7.89
2023-04-28T03:00:37.132Z,7.92
2023-04-28T03:01:37.260Z,7.92
2023-04-28T03:02:37.190Z,7.95
2023-04-28T03:03:37.189Z,7.83
2023-04-28T03:04:37.115Z,7.90
2023-04-28T03:05:37.130Z,7.98
2023-04-28T03:06:37.055Z,8.04
2023-04-28T03:07:37.057Z,8.04
2023-04-28T03:08:37.043Z,8.05
2023-04-28T03:09:37.028Z,8.02
2023-04-28T03:10:37.051Z,8.07
2023-04-28T03:11:36.994Z,8.00
2023-04-28T03:12:36.988Z,8.01
2023-04-28T03:13:36.993Z,7.98
2023-04-28T03:14:36.981Z,8.05
2023-04-28T03:15:36.956Z,8.00
2023-04-28T03:16:36.977Z,8.07
2023-04-28T03:17:36.996Z,7.95
2023-04-28T03:18:36.925Z,8.04
2023-04-28T03:19:36.906Z,8.01
2023-04-28T03:20:36.891Z,8.04
2023-04-28T03:21:36.902Z,7.98
2023-04-28T03:22:36.885Z,7.98
2023-04-28T03:23:36.918Z,7.97
2023-04-28T03:24:36.862Z,7.90
2023-04-28T03:25:36.834Z,7.93
2023-04-28T03:26:36.830Z,7.98
2023-04-28T03:27:36.810Z,7.93
2023-04-28T03:28:36.836Z,7.95
2023-04-28T03:29:36.790Z,7.93
2023-04-28T03:30:36.777Z,7.98
2023-04-28T03:31:36.819Z,7.89
2023-04-28T03:32:36.790Z,7.98
2023-04-28T03:33:36.762Z,7.93
2023-04-28T03:34:36.738Z,7.95
2023-04-28T03:35:36.732Z,7.93
2023-04-28T03:36:36.734Z,7.92
2023-04-28T03:37:36.732Z,7.93
2023-04-28T03:38:36.726Z,7.93
2023-04-28T03:39:36.673Z,7.82
2023-04-28T03:40:36.663Z,7.86
2023-04-28T03:41:36.678Z,7.92
2023-04-28T03:42:36.643Z,7.87
2023-04-28T03:43:36.659Z,7.83
2023-04-28T03:44:36.638Z,7.93
2023-04-28T03:45:36.644Z,7.87
2023-04-28T03:46:36.610Z,7.93
2023-04-28T03:47:36.584Z,7.90
2023-04-28T03:48:36.600Z,7.95
2023-04-28T03:49:36.561Z,8.02
2023-04-28T03:50:36.558Z,7.95
2023-04-28T03:51:36.561Z,7.97
2023-04-28T03:52:36.542Z,7.93
2023-04-28T03:53:36.562Z,7.93
2023-04-28T03:54:36.509Z,7.93
2023-04-28T03:55:36.497Z,7.93
2023-04-28T03:56:36.489Z,8.07
2023-04-28T03:57:36.477Z,8.10
2023-04-28T03:58:36.475Z,8.12
2023-04-28T03:59:36.450Z,8.16
2023-04-28T04:00:36.451Z,8.16
2023-04-28T04:01:36.425Z,8.12
2023-04-28T04:02:36.586Z,8.12
2023-04-28T04:03:36.553Z,8.11
2023-04-28T04:04:36.528Z,8.07
2023-04-28T04:05:36.413Z,8.10
2023-04-28T04:06:36.387Z,8.01
2023-04-28T04:07:36.363Z,8.08
2023-04-28T04:08:36.381Z,8.16
2023-04-28T04:09:36.360Z,8.15
2023-04-28T04:10:36.334Z,8.11
2023-04-28T04:11:36.315Z,8.02
2023-04-28T04:12:36.306Z,8.07
2023-04-28T04:13:36.335Z,8.04
2023-04-28T04:14:36.281Z,7.93
2023-04-28T04:15:36.288Z,8.00
2023-04-28T04:16:36.261Z,7.93
2023-04-28T04:17:36.278Z,7.90
2023-04-28T04:18:36.253Z,7.92
2023-04-28T04:19:36.230Z,7.95
2023-04-28T04:20:36.213Z,7.98
2023-04-28T04:21:36.214Z,7.87
2023-04-28T04:22:36.199Z,7.98
2023-04-28T04:23:36.208Z,7.89
2023-04-28T04:24:36.168Z,7.87
2023-04-28T04:25:36.200Z,7.89
2023-04-28T04:26:36.149Z,7.93
2023-04-28T04:27:36.139Z,7.89
2023-04-28T04:28:36.145Z,7.95
2023-04-28T04:29:36.110Z,7.87
2023-04-28T04:30:36.103Z,7.86
2023-04-28T04:31:36.165Z,7.86
2023-04-28T04:32:36.087Z,7.89
2023-04-28T04:33:36.090Z,7.87
2023-04-28T04:34:36.080Z,7.90
2023-04-28T04:35:36.047Z,7.92
2023-04-28T04:36:36.042Z,7.90
2023-04-28T04:37:36.023Z,7.93
2023-04-28T04:38:36.022Z,7.86
2023-04-28T04:39:36.006Z,7.86
2023-04-28T04:40:35.985Z,7.89
2023-04-28T04:41:35.991Z,7.89
2023-04-28T04:42:35.961Z,7.92
2023-04-28T04:43:35.974Z,8.02
2023-04-28T04:44:35.949Z,7.93
2023-04-28T04:45:35.945Z,7.97
2023-04-28T04:46:35.952Z,7.90
2023-04-28T04:47:35.997Z,7.90
2023-04-28T04:48:35.917Z,7.97
2023-04-28T04:49:35.897Z,8.05
2023-04-28T04:50:35.912Z,7.98
2023-04-28T04:51:35.861Z,8.01
2023-04-28T04:52:35.878Z,8.10
2023-04-28T04:53:35.848Z,8.12
2023-04-28T04:54:35.844Z,8.22
2023-04-28T04:55:35.826Z,8.16
2023-04-28T04:56:35.806Z,8.30
2023-04-28T04:57:35.824Z,8.30
2023-04-28T04:58:35.815Z,8.30
2023-04-28T04:59:35.769Z,8.36
2023-04-28T05:00:35.762Z,8.41
2023-04-28T05:01:35.801Z,8.44
2023-04-28T05:02:35.912Z,8.40
2023-04-28T05:03:35.862Z,8.47
2023-04-28T05:04:35.806Z,8.41
2023-04-28T05:05:35.707Z,8.47
2023-04-28T05:06:35.696Z,8.47
2023-04-28T05:07:35.689Z,8.41
2023-04-28T05:08:35.689Z,8.47
2023-04-28T05:09:35.658Z,8.43
2023-04-28T05:10:35.666Z,8.55
2023-04-28T05:11:35.637Z,8.50
2023-04-28T05:12:35.630Z,8.50
2023-04-28T05:13:35.656Z,8.58
2023-04-28T05:14:35.613Z,8.55
2023-04-28T05:15:35.597Z,8.62
2023-04-28T05:16:35.596Z,8.56
2023-04-28T05:17:35.644Z,8.55
2023-04-28T05:18:35.567Z,8.55
2023-04-28T05:19:35.559Z,8.61
2023-04-28T05:20:35.543Z,8.56
2023-04-28T05:21:35.525Z,8.61
2023-04-28T05:22:35.517Z,8.66
2023-04-28T05:23:35.531Z,8.68
2023-04-28T05:24:35.496Z,8.74
2023-04-28T05:25:35.537Z,8.94
2023-04-28T05:26:35.474Z,8.81
2023-04-28T05:27:35.459Z,8.92
2023-04-28T05:28:35.474Z,8.86
2023-04-28T05:29:35.456Z,8.99
2023-04-28T05:30:35.442Z,8.96
2023-04-28T05:31:35.432Z,8.99
2023-04-28T05:32:35.441Z,9.01
2023-04-28T05:33:35.413Z,9.02
2023-04-28T05:34:35.387Z,9.08
2023-04-28T05:35:35.369Z,9.08
2023-04-28T05:36:35.363Z,9.10
2023-04-28T05:37:35.357Z,9.10
2023-04-28T05:38:35.352Z,9.14
2023-04-28T05:39:35.329Z,9.13
2023-04-28T05:40:35.319Z,9.13
2023-04-28T05:41:35.293Z,9.23
2023-04-28T05:42:35.290Z,9.17
2023-04-28T05:43:35.290Z,9.10
2023-04-28T05:44:35.264Z,9.11
2023-04-28T05:45:35.346Z,9.11
2023-04-28T05:46:35.318Z,9.15
2023-04-28T05:47:35.259Z,9.21
2023-04-28T05:48:35.234Z,9.17
2023-04-28T05:49:35.205Z,9.17
2023-04-28T05:50:37.014Z,9.24
2023-04-28T05:51:35.204Z,9.21
2023-04-28T05:52:35.184Z,9.26
2023-04-28T05:53:35.193Z,9.18
2023-04-28T05:54:35.150Z,9.29
2023-04-28T05:55:35.153Z,9.32
2023-04-28T05:56:35.133Z,9.38
2023-04-28T05:57:45.671Z,9.32
2023-04-28T05:58:35.121Z,9.38
2023-04-28T05:59:35.109Z,9.36
2023-04-28T06:00:35.092Z,9.42
2023-04-28T06:01:35.113Z,9.42
2023-04-28T06:02:35.133Z,9.46
2023-04-28T06:03:35.200Z,9.53
2023-04-28T06:04:35.208Z,9.56
2023-04-28T06:05:35.372Z,9.47
2023-04-28T06:06:35.028Z,9.50
2023-04-28T06:07:35.016Z,9.56
2023-04-28T06:08:35.017Z,9.57
2023-04-28T06:09:34.984Z,9.60
2023-04-28T06:10:34.965Z,9.51
2023-04-28T06:11:34.966Z,9.61
2023-04-28T06:12:34.945Z,9.56
2023-04-28T06:13:34.981Z,9.56
2023-04-28T06:14:34.928Z,9.58
2023-04-28T06:15:34.973Z,9.61
2023-04-28T06:16:35.038Z,9.69
2023-04-28T06:17:34.984Z,9.69
2023-04-28T06:18:34.881Z,9.72
2023-04-28T06:19:34.874Z,9.71
2023-04-28T06:20:34.862Z,9.84
2023-04-28T06:21:34.845Z,9.89
2023-04-28T06:22:34.855Z,9.93
2023-04-28T06:23:34.827Z,9.91
2023-04-28T06:24:34.813Z,9.96
2023-04-28T06:25:34.807Z,9.97
2023-04-28T06:26:34.795Z,10.04
2023-04-28T06:27:34.811Z,10.02
2023-04-28T06:28:34.799Z,10.01
2023-04-28T06:29:34.759Z,9.99
2023-04-28T06:30:34.760Z,9.96
2023-04-28T06:31:34.782Z,9.89
2023-04-28T06:32:34.768Z,9.96
2023-04-28T06:33:34.726Z,10.04
2023-04-28T06:34:34.723Z,9.99
2023-04-28T06:35:34.688Z,10.02
2023-04-28T06:36:34.676Z,10.07
2023-04-28T06:37:34.696Z,10.09
2023-04-28T06:38:34.649Z,10.11
2023-04-28T06:39:34.670Z,10.07
2023-04-28T06:40:34.627Z,10.11
2023-04-28T06:41:34.620Z,10.20
2023-04-28T06:42:34.759Z,10.29
2023-04-28T06:43:34.599Z,10.23
2023-04-28T06:44:36.326Z,10.15
2023-04-28T06:45:34.576Z,10.12
2023-04-28T06:46:34.612Z,10.15
2023-04-28T06:47:34.570Z,10.17
2023-04-28T06:48:34.555Z,10.20
2023-04-28T06:49:34.558Z,10.14
2023-04-28T06:50:34.525Z,10.09
2023-04-28T06:51:34.524Z,9.97
2023-04-28T06:52:39.303Z,10.01
2023-04-28T06:53:34.481Z,9.94
2023-04-28T06:54:34.480Z,9.89
2023-04-28T06:55:34.465Z,9.94
2023-04-28T06:56:34.449Z,9.93
2023-04-28T06:57:34.453Z,9.91
2023-04-28T06:58:34.455Z,9.93
2023-04-28T06:59:34.416Z,9.90
2023-04-28T07:00:34.486Z,9.93
2023-04-28T07:01:34.401Z,9.96
2023-04-28T07:02:34.557Z,9.93
2023-04-28T07:03:34.423Z,10.01
2023-04-28T07:04:34.362Z,10.02
2023-04-28T07:05:34.388Z,9.89
2023-04-28T07:06:34.332Z,9.99
2023-04-28T07:07:34.342Z,9.94
2023-04-28T07:08:34.325Z,9.99
2023-04-28T07:09:34.299Z,10.04
2023-04-28T07:10:34.296Z,9.96
2023-04-28T07:11:34.276Z,9.93
2023-04-28T07:12:34.285Z,10.04
2023-04-28T07:13:34.257Z,9.87
2023-04-28T07:14:34.244Z,10.01
2023-04-28T07:15:34.241Z,9.93
2023-04-28T07:16:34.260Z,9.97
2023-04-28T07:17:34.283Z,9.91
2023-04-28T07:18:34.210Z,10.02
2023-04-28T07:19:34.188Z,10.05
2023-04-28T07:20:34.181Z,10.05
2023-04-28T07:21:34.185Z,10.20
2023-04-28T07:22:34.179Z,10.14
2023-04-28T07:23:34.158Z,10.32
2023-04-28T07:24:34.313Z,10.27
2023-04-28T07:25:34.122Z,10.30
2023-04-28T07:26:34.124Z,10.17
2023-04-28T07:27:34.127Z,10.23
2023-04-28T07:28:34.094Z,10.30
2023-04-28T07:29:34.075Z,10.29
2023-04-28T07:30:34.069Z,10.32
2023-04-28T07:31:34.063Z,10.40
2023-04-28T07:32:34.086Z,10.36
2023-04-28T07:33:34.053Z,10.38
2023-04-28T07:34:34.019Z,10.42
2023-04-28T07:35:34.028Z,10.52
2023-04-28T07:36:34.002Z,10.47
2023-04-28T07:37:34.020Z,10.47
2023-04-28T07:38:33.993Z,10.52
2023-04-28T07:39:34.004Z,10.51
2023-04-28T07:40:33.962Z,10.45
2023-04-28T07:41:33.941Z,10.42
2023-04-28T07:42:33.942Z,10.52
2023-04-28T07:43:33.935Z,10.51
2023-04-28T07:44:33.912Z,10.64
2023-04-28T07:45:33.942Z,10.59
2023-04-28T07:46:33.902Z,10.60
2023-04-28T07:47:34.004Z,10.78
2023-04-28T07:48:33.876Z,10.73
2023-04-28T07:49:33.846Z,10.73
2023-04-28T07:50:33.837Z,10.88
2023-04-28T07:51:33.821Z,10.94
2023-04-28T07:52:33.815Z,11.07
2023-04-28T07:53:34.012Z,11.00
2023-04-28T07:54:36.385Z,11.15
2023-04-28T07:55:33.777Z,11.24
2023-04-28T07:56:33.780Z,11.39
2023-04-28T07:57:33.753Z,11.28
2023-04-28T07:58:33.767Z,11.35
2023-04-28T07:59:33.738Z,11.25
2023-04-28T08:00:33.718Z,11.39
2023-04-28T08:01:33.718Z,11.25
2023-04-28T08:02:33.803Z,11.25
2023-04-28T08:03:33.967Z,11.28
2023-04-28T08:04:33.879Z,11.35
2023-04-28T08:05:33.710Z,11.44
2023-04-28T08:06:33.655Z,11.44
2023-04-28T08:07:34.022Z,11.52
2023-04-28T08:08:33.627Z,11.60
2023-04-28T08:09:33.634Z,11.46
2023-04-28T08:10:33.615Z,11.52
2023-04-28T08:11:33.591Z,11.57
2023-04-28T08:12:33.597Z,11.70
2023-04-28T08:13:33.584Z,11.78
2023-04-28T08:14:33.562Z,11.73
2023-04-28T08:15:33.602Z,11.67
2023-04-28T08:16:33.542Z,11.54
2023-04-28T08:17:33.560Z,11.58
2023-04-28T08:18:33.541Z,11.65
2023-04-28T08:19:33.504Z,11.67
2023-04-28T08:20:33.503Z,11.86
2023-04-28T08:21:33.477Z,11.83
2023-04-28T08:22:33.475Z,11.76
2023-04-28T08:23:33.481Z,11.73
2023-04-28T08:24:33.439Z,11.76
2023-04-28T08:25:33.456Z,11.60
2023-04-28T08:26:33.423Z,11.73
2023-04-28T08:27:33.413Z,11.85
2023-04-28T08:28:33.421Z,11.95
2023-04-28T08:29:33.396Z,12.09
2023-04-28T08:30:33.376Z,12.12
2023-04-28T08:31:33.399Z,12.29
2023-04-28T08:32:33.376Z,12.34
2023-04-28T08:33:33.341Z,12.41
2023-04-28T08:34:33.330Z,12.78
2023-04-28T08:35:33.317Z,12.87
2023-04-28T08:36:33.306Z,13.07
2023-04-28T08:37:33.321Z,13.22
2023-04-28T08:38:33.312Z,13.36
2023-04-28T08:39:33.265Z,13.25
2023-04-28T08:40:33.289Z,13.30
2023-04-28T08:41:33.265Z,13.49
2023-04-28T08:42:33.258Z,13.54
2023-04-28T08:43:33.226Z,13.46
2023-04-28T08:44:33.216Z,13.48
2023-04-28T08:45:33.207Z,13.49
2023-04-28T08:46:33.233Z,13.39
2023-04-28T08:47:33.228Z,13.45
2023-04-28T08:48:33.172Z,13.45
2023-04-28T08:49:33.157Z,13.44
2023-04-28T08:50:33.148Z,13.44
2023-04-28T08:51:33.134Z,13.39
2023-04-28T08:52:33.147Z,13.45
2023-04-28T08:53:33.340Z,13.45
2023-04-28T08:54:33.487Z,13.44
2023-04-28T08:55:33.112Z,13.46
2023-04-28T08:56:33.101Z,13.29
2023-04-28T08:57:33.095Z,13.42
2023-04-28T08:58:33.060Z,13.39
2023-04-28T08:59:33.055Z,13.46
2023-04-28T09:00:33.041Z,13.42
2023-04-28T09:01:33.055Z,13.44
2023-04-28T09:02:33.173Z,13.48
2023-04-28T09:03:33.193Z,13.45
2023-04-28T09:04:33.116Z,13.44
2023-04-28T09:05:33.338Z,13.44
2023-04-28T09:06:32.964Z,13.54
2023-04-28T09:07:33.153Z,13.52
2023-04-28T09:08:32.987Z,13.45
2023-04-28T09:09:34.980Z,13.51
2023-04-28T09:10:32.927Z,13.52
2023-04-28T09:11:32.908Z,13.51
2023-04-28T09:12:32.914Z,13.45
2023-04-28T09:13:32.905Z,13.44
2023-04-28T09:14:32.875Z,13.51
2023-04-28T09:15:34.125Z,13.55
2023-04-28T09:16:32.899Z,13.54
2023-04-28T09:17:32.902Z,13.57
2023-04-28T09:18:32.832Z,13.54
2023-04-28T09:19:32.821Z,13.54
2023-04-28T09:20:32.815Z,13.42
2023-04-28T09:21:32.800Z,13.39
2023-04-28T09:22:32.838Z,13.38
2023-04-28T09:23:32.779Z,13.25
2023-04-28T09:24:32.768Z,13.32
2023-04-28T09:25:32.756Z,13.38
2023-04-28T09:26:32.766Z,13.33
2023-04-28T09:27:32.744Z,13.30
2023-04-28T09:28:32.739Z,13.32
2023-04-28T09:29:32.858Z,13.29
2023-04-28T09:30:32.717Z,13.25
2023-04-28T09:31:32.698Z,13.29
2023-04-28T09:32:32.783Z,13.23
2023-04-28T09:33:32.666Z,13.15
2023-04-28T09:34:32.656Z,13.12
2023-04-28T09:35:32.640Z,13.23
2023-04-28T09:36:32.675Z,13.30
2023-04-28T09:37:32.636Z,13.42
2023-04-28T09:38:32.621Z,13.51
2023-04-28T09:39:32.601Z,13.69
2023-04-28T09:40:32.614Z,13.70
2023-04-28T09:41:32.591Z,13.84
2023-04-28T09:42:32.582Z,13.96
2023-04-28T09:43:32.562Z,13.96
2023-04-28T09:44:32.556Z,13.88
2023-04-28T09:45:32.553Z,14.00
2023-04-28T09:46:32.646Z,14.06
2023-04-28T09:47:32.595Z,14.07
2023-04-28T09:48:32.512Z,13.95
2023-04-28T09:49:32.493Z,13.81
2023-04-28T09:50:32.479Z,13.70
2023-04-28T09:51:32.462Z,13.64
2023-04-28T09:52:32.467Z,13.77
2023-04-28T09:53:32.445Z,13.84
2023-04-28T09:54:32.431Z,13.88
2023-04-28T09:55:32.423Z,13.92
2023-04-28T09:56:32.422Z,13.92
2023-04-28T09:57:32.422Z,14.04
2023-04-28T09:58:32.412Z,14.00
2023-04-28T09:59:32.373Z,13.99
2023-04-28T10:00:32.366Z,13.96
2023-04-28T10:01:32.430Z,14.17
2023-04-28T10:02:43.392Z,14.12
2023-04-28T10:03:33.584Z,14.10
2023-04-28T10:04:32.412Z,14.24
2023-04-28T10:05:32.552Z,14.28
2023-04-28T10:06:32.307Z,14.47
2023-04-28T10:07:32.398Z,14.61
2023-04-28T10:08:32.431Z,14.58
2023-04-28T10:09:32.319Z,14.60
2023-04-28T10:10:32.375Z,14.39
2023-04-28T10:11:32.325Z,14.17
2023-04-28T10:12:32.298Z,13.95
2023-04-28T10:13:32.327Z,13.89
2023-04-28T10:14:32.276Z,13.87
2023-04-28T10:15:32.269Z,13.75
2023-04-28T10:16:32.326Z,13.70
2023-04-28T10:17:32.310Z,13.62
2023-04-28T10:18:32.319Z,13.75
2023-04-28T10:19:32.202Z,13.69
2023-04-28T10:20:32.257Z,13.64
2023-04-28T10:21:32.233Z,13.75
2023-04-28T10:22:32.255Z,13.67
2023-04-28T10:23:32.320Z,13.81
2023-04-28T10:24:32.161Z,13.84
2023-04-28T10:25:32.439Z,13.88
2023-04-28T10:26:32.144Z,13.91
2023-04-28T10:27:32.133Z,14.00
2023-04-28T10:28:32.162Z,13.95
2023-04-28T10:29:32.082Z,13.92
2023-04-28T10:30:32.108Z,13.92
2023-04-28T10:31:32.099Z,13.92
2023-04-28T10:32:32.021Z,13.91
2023-04-28T10:33:32.155Z,13.84
2023-04-28T10:34:32.052Z,13.70
2023-04-28T10:35:32.025Z,13.88
2023-04-28T10:36:36.236Z,13.78
2023-04-28T10:37:31.992Z,13.77
2023-04-28T10:38:32.110Z,13.63
2023-04-28T10:39:31.962Z,13.52
2023-04-28T10:40:32.098Z,13.51
2023-04-28T10:41:32.054Z,13.57
2023-04-28T10:42:32.049Z,13.57
2023-04-28T10:43:32.052Z,13.54
2023-04-28T10:44:31.932Z,13.54
2023-04-28T10:45:33.994Z,13.64
2023-04-28T10:46:31.997Z,13.54
2023-04-28T10:47:31.944Z,13.60
2023-04-28T10:48:32.131Z,13.67
2023-04-28T10:49:31.904Z,13.75
2023-04-28T10:50:39.137Z,13.55
2023-04-28T10:51:32.940Z,13.77
2023-04-28T10:52:31.837Z,13.85
2023-04-28T10:53:31.874Z,13.91
2023-04-28T10:54:31.798Z,14.00
2023-04-28T10:55:31.785Z,13.87
2023-04-28T10:56:31.801Z,13.81
2023-04-28T10:57:31.783Z,13.84
2023-04-28T10:58:32.206Z,13.75
2023-04-28T10:59:31.719Z,13.71
2023-04-28T11:00:31.788Z,13.77
2023-04-28T11:01:31.911Z,13.84
2023-04-28T11:02:31.858Z,13.70
2023-04-28T11:03:32.363Z,13.73
2023-04-28T11:04:31.812Z,13.62
2023-04-28T11:05:31.821Z,13.64
2023-04-28T11:06:31.718Z,13.60
2023-04-28T11:07:31.973Z,13.70
2023-04-28T11:08:31.925Z,13.70
2023-04-28T11:09:31.603Z,13.59
2023-04-28T11:10:31.572Z,13.60
2023-04-28T11:11:31.614Z,13.64
2023-04-28T11:12:31.639Z,13.55
2023-04-28T11:13:31.698Z,13.57
2023-04-28T11:14:31.622Z,13.55
2023-04-28T11:15:31.580Z,13.44
2023-04-28T11:16:31.609Z,13.46
2023-04-28T11:17:31.582Z,13.41
2023-04-28T11:18:31.585Z,13.48
2023-04-28T11:19:31.583Z,13.46
2023-04-28T11:20:31.506Z,13.38
2023-04-28T11:21:31.500Z,13.39
2023-04-28T11:22:31.504Z,13.46
2023-04-28T11:23:31.532Z,13.46
2023-04-28T11:24:31.499Z,13.44
2023-04-28T11:25:31.504Z,13.59
2023-04-28T11:26:31.426Z,13.52
2023-04-28T11:27:31.496Z,13.48
2023-04-28T11:28:31.515Z,13.51
2023-04-28T11:29:31.380Z,13.45
2023-04-28T11:30:31.484Z,13.36
2023-04-28T11:31:31.486Z,13.25
2023-04-28T11:32:31.570Z,13.33
2023-04-28T11:33:31.448Z,13.28
2023-04-28T11:34:31.595Z,13.38
2023-04-28T11:35:31.427Z,13.42
2023-04-28T11:36:31.330Z,13.38
2023-04-28T11:37:31.434Z,13.33
2023-04-28T11:38:31.400Z,13.36
2023-04-28T11:39:31.327Z,13.38
2023-04-28T11:40:31.306Z,13.36
2023-04-28T11:41:31.342Z,13.44
2023-04-28T11:42:31.444Z,13.51
2023-04-28T11:43:43.752Z,13.42
2023-04-28T11:44:32.264Z,13.52
2023-04-28T11:45:31.230Z,13.49
2023-04-28T11:46:31.326Z,13.42
2023-04-28T11:47:31.318Z,13.41
2023-04-28T11:48:31.193Z,13.49
2023-04-28T11:49:31.347Z,13.49
2023-04-28T11:50:31.124Z,13.57
2023-04-28T11:51:31.163Z,13.59
2023-04-28T11:52:31.172Z,13.59
2023-04-28T11:53:31.186Z,13.48
2023-04-28T11:54:31.150Z,13.55
2023-04-28T11:55:31.115Z,13.60
2023-04-28T11:56:31.056Z,13.62
2023-04-28T11:57:31.060Z,13.54
2023-04-28T11:58:31.056Z,13.59
2023-04-28T11:59:31.047Z,13.60
2023-04-28T12:00:31.006Z,13.57
2023-04-28T12:01:31.007Z,13.62
2023-04-28T12:02:31.208Z,13.59
2023-04-28T12:03:31.198Z,13.59
2023-04-28T12:04:30.960Z,13.71
2023-04-28T12:05:31.025Z,13.75
2023-04-28T12:06:30.938Z,13.69
2023-04-28T12:07:30.930Z,13.70
2023-04-28T12:08:30.956Z,13.75
2023-04-28T12:09:30.929Z,13.75
2023-04-28T12:10:30.895Z,13.67
2023-04-28T12:11:30.886Z,13.70
2023-04-28T12:12:45.240Z,13.55
2023-04-28T12:13:31.879Z,13.69
2023-04-28T12:14:30.847Z,13.62
2023-04-28T12:15:30.843Z,13.71
2023-04-28T12:16:31.952Z,13.69
2023-04-28T12:17:30.855Z,13.77
2023-04-28T12:18:30.816Z,13.62
2023-04-28T12:19:30.798Z,13.63
2023-04-28T12:20:30.780Z,13.73
2023-04-28T12:21:30.769Z,13.67
2023-04-28T12:22:30.762Z,13.55
2023-04-28T12:23:30.760Z,13.51
2023-04-28T12:24:30.744Z,13.51
2023-04-28T12:25:30.789Z,13.49
2023-04-28T12:26:30.723Z,13.48
2023-04-28T12:27:30.712Z,13.52
2023-04-28T12:28:30.711Z,13.66
2023-04-28T12:29:30.688Z,13.71
2023-04-28T12:30:30.702Z,13.70
2023-04-28T12:31:30.693Z,13.78
2023-04-28T12:32:30.669Z,13.69
2023-04-28T12:33:30.651Z,13.69
2023-04-28T12:34:30.622Z,13.67
2023-04-28T12:35:30.610Z,13.64
2023-04-28T12:36:30.603Z,13.69
2023-04-28T12:37:30.600Z,13.84
2023-04-28T12:38:30.595Z,13.81
2023-04-28T12:39:30.595Z,13.87
2023-04-28T12:40:30.554Z,13.96
2023-04-28T12:41:30.563Z,14.06
2023-04-28T12:42:30.539Z,14.02
2023-04-28T12:43:30.543Z,13.89
2023-04-28T12:44:30.515Z,13.88
2023-04-28T12:45:30.507Z,14.00
2023-04-28T12:46:30.547Z,14.07
2023-04-28T12:47:30.498Z,14.21
2023-04-28T12:48:30.483Z,14.32
2023-04-28T12:49:30.457Z,14.45
2023-04-28T12:50:30.444Z,14.58
2023-04-28T12:51:30.433Z,14.72
2023-04-28T12:52:30.417Z,14.70
2023-04-28T12:53:30.429Z,14.72
2023-04-28T12:54:30.403Z,14.72
2023-04-28T12:55:30.389Z,14.72
2023-04-28T12:56:30.378Z,14.73
2023-04-28T12:57:30.392Z,14.75
2023-04-28T12:58:30.437Z,14.64
2023-04-28T12:59:30.385Z,14.64
2023-04-28T13:00:30.334Z,14.68
2023-04-28T13:01:30.364Z,14.69
2023-04-28T13:02:30.388Z,14.72
2023-04-28T13:03:30.414Z,14.89
2023-04-28T13:04:30.400Z,14.94
2023-04-28T13:05:30.283Z,15.21
2023-04-28T13:06:30.261Z,15.39